createdAt,value
2022-08-18T00:01:23.557Z,7.93
2022-08-18T00:03:56.367Z,7.28
2022-08-18T00:06:29.918Z,7.60
2022-08-18T00:08:59.167Z,7.40
2022-08-18T00:11:27.543Z,7.97
2022-08-18T00:13:54.727Z,7.35
2022-08-18T00:16:22.326Z,6.85
2022-08-18T00:18:49.582Z,7.43
2022-08-18T00:21:18.228Z,7.70
2022-08-18T00:23:45.411Z,7.65
2022-08-18T00:26:12.697Z,7.63
2022-08-18T00:28:39.923Z,7.72
2022-08-18T00:31:07.127Z,6.90
2022-08-18T00:33:34.255Z,7.90
2022-08-18T00:36:01.456Z,7.13
2022-08-18T00:38:28.644Z,7.50
2022-08-18T00:40:56.935Z,7.38
2022-08-18T00:43:39.781Z,7.22
2022-08-18T00:46:09.151Z,7.97
2022-08-18T00:48:36.343Z,7.28
2022-08-18T00:51:08.807Z,7.72
2022-08-18T00:53:41.990Z,7.47
2022-08-18T00:56:13.742Z,7.13
2022-08-18T00:58:45.952Z,7.95
2022-08-18T01:01:14.719Z,7.75
2022-08-18T01:03:43.973Z,7.05
2022-08-18T01:06:32.463Z,7.45
2022-08-18T01:08:59.829Z,8.25
2022-08-18T01:11:27.208Z,7.63
2022-08-18T01:13:54.391Z,7.70
2022-08-18T01:16:56.938Z,7.00
2022-08-18T01:19:44.582Z,7.75
2022-08-18T01:22:30.727Z,8.00
2022-08-18T01:25:18.639Z,7.97
2022-08-18T01:27:46.091Z,7.90
2022-08-18T01:30:16.706Z,7.72
2022-08-18T01:32:46.030Z,7.57
2022-08-18T01:35:15.903Z,8.68
2022-08-18T01:37:43.393Z,8.38
2022-08-18T01:41:22.676Z,7.72
2022-08-18T01:43:03.510Z,8.48
2022-08-18T01:45:33.408Z,7.50
2022-08-18T01:48:00.952Z,8.45
2022-08-18T01:50:29.527Z,7.78
2022-08-18T01:52:56.713Z,8.70
2022-08-18T01:55:26.667Z,7.57
2022-08-18T01:57:54.984Z,7.70
2022-08-18T02:00:22.366Z,8.05
2022-08-18T02:02:58.671Z,7.45
2022-08-18T02:05:34.239Z,7.50
2022-08-18T02:08:01.449Z,7.82
2022-08-18T02:10:28.828Z,8.10
2022-08-18T02:12:56.013Z,7.85
2022-08-18T02:15:23.250Z,7.90
2022-08-18T02:17:50.767Z,7.88
2022-08-18T02:20:19.169Z,7.72
2022-08-18T02:22:47.454Z,8.52
2022-08-18T02:25:15.472Z,9.05
2022-08-18T02:27:43.112Z,8.55
2022-08-18T02:30:13.742Z,8.00
2022-08-18T02:32:41.990Z,8.65
2022-08-18T02:35:11.816Z,8.25
2022-08-18T02:37:42.299Z,8.38
2022-08-18T02:40:15.369Z,8.57
2022-08-18T02:42:44.088Z,7.50
2022-08-18T02:45:12.844Z,7.95
2022-08-18T02:47:40.345Z,8.13
2022-08-18T02:50:10.991Z,8.43
2022-08-18T02:52:40.306Z,8.00
2022-08-18T02:55:08.313Z,8.60
2022-08-18T02:57:35.734Z,8.63
2022-08-18T03:00:04.469Z,8.52
2022-08-18T03:02:32.229Z,8.57
2022-08-18T03:04:59.533Z,8.75
2022-08-18T03:07:26.731Z,8.50
2022-08-18T03:09:53.928Z,8.55
2022-08-18T03:12:21.160Z,8.30
2022-08-18T03:14:48.613Z,8.00
2022-08-18T03:17:15.781Z,8.68
2022-08-18T03:19:47.725Z,8.57
2022-08-18T03:22:28.230Z,8.25
2022-08-18T03:24:57.518Z,8.38
2022-08-18T03:27:25.251Z,8.75
2022-08-18T03:29:52.503Z,8.75
2022-08-18T03:32:19.671Z,8.18
2022-08-18T03:34:46.907Z,8.57
2022-08-18T03:37:15.978Z,8.55
2022-08-18T03:39:43.349Z,9.07
2022-08-18T03:42:10.620Z,8.57
2022-08-18T03:44:37.753Z,8.02
2022-08-18T03:47:09.814Z,9.27
2022-08-18T03:49:37.290Z,8.02
2022-08-18T03:52:08.239Z,8.10
2022-08-18T03:54:36.265Z,8.77
2022-08-18T03:57:03.374Z,9.30
2022-08-18T03:59:32.070Z,8.85
2022-08-18T04:01:59.475Z,8.45
2022-08-18T04:04:28.253Z,8.75
2022-08-18T04:06:59.648Z,9.02
2022-08-18T04:09:29.281Z,8.85
2022-08-18T04:11:58.040Z,9.13
2022-08-18T04:14:35.810Z,9.15
2022-08-18T04:17:02.963Z,9.00
2022-08-18T04:19:30.972Z,8.65
2022-08-18T04:21:58.282Z,9.07
2022-08-18T04:24:28.243Z,9.02
2022-08-18T04:26:59.288Z,9.43
2022-08-18T04:29:26.672Z,9.30
2022-08-18T04:31:54.069Z,9.23
2022-08-18T04:34:22.849Z,9.40
2022-08-18T04:36:53.876Z,10.38
2022-08-18T04:39:22.128Z,9.40
2022-08-18T04:41:49.917Z,8.73
2022-08-18T04:44:18.156Z,8.63
2022-08-18T04:46:47.965Z,9.05
2022-08-18T04:49:16.337Z,8.70
2022-08-18T04:52:36.224Z,10.00
2022-08-18T04:54:52.304Z,9.48
2022-08-18T04:57:21.570Z,8.55
2022-08-18T04:59:50.645Z,9.10
2022-08-18T05:02:18.968Z,9.45
2022-08-18T05:04:49.336Z,9.23
2022-08-18T05:07:22.530Z,9.23
2022-08-18T05:09:50.129Z,9.63
2022-08-18T05:12:17.371Z,8.38
2022-08-18T05:14:45.929Z,9.23
2022-08-18T05:17:14.968Z,10.40
2022-08-18T05:19:44.477Z,9.00
2022-08-18T05:22:17.713Z,9.18
2022-08-18T05:24:46.086Z,9.57
2022-08-18T05:27:13.671Z,9.02
2022-08-18T05:29:45.714Z,9.75
2022-08-18T05:32:38.274Z,8.70
2022-08-18T05:35:07.975Z,10.07
2022-08-18T05:38:04.615Z,9.10
2022-08-18T05:40:31.925Z,9.63
2022-08-18T05:42:59.939Z,9.30
2022-08-18T05:45:27.465Z,10.30
2022-08-18T05:48:00.010Z,9.45
2022-08-18T05:50:29.459Z,9.27
2022-08-18T05:53:13.729Z,8.80
2022-08-18T05:56:15.959Z,9.05
2022-08-18T05:58:48.230Z,8.63
2022-08-18T06:01:31.300Z,8.35
2022-08-18T06:04:05.491Z,9.27
2022-08-18T06:06:32.958Z,8.63
2022-08-18T06:09:27.810Z,9.77
2022-08-18T06:12:05.003Z,9.45
2022-08-18T06:14:32.153Z,12.82
2022-08-18T06:17:04.440Z,14.68
2022-08-18T06:19:49.503Z,13.98
2022-08-18T06:22:30.633Z,12.02
2022-08-18T06:25:55.323Z,10.55
2022-08-18T06:28:22.464Z,10.30
2022-08-18T06:31:02.812Z,10.43
2022-08-18T06:33:42.735Z,10.40
2022-08-18T06:36:30.511Z,9.77
2022-08-18T06:41:48.983Z,11.05
2022-08-18T06:44:45.588Z,9.30
2022-08-18T06:47:46.258Z,11.13
2022-08-18T06:50:31.885Z,9.60
2022-08-18T06:53:07.558Z,10.07
2022-08-18T06:55:54.179Z,9.55
2022-08-18T06:58:25.953Z,9.45
2022-08-18T07:00:55.999Z,10.32
2022-08-18T07:03:35.472Z,10.73
2022-08-18T07:06:25.314Z,9.85
2022-08-18T07:08:54.316Z,11.20
2022-08-18T07:11:22.906Z,10.05
2022-08-18T07:14:14.512Z,9.35
2022-08-18T07:16:57.845Z,9.40
2022-08-18T07:19:29.283Z,9.70
2022-08-18T07:22:18.041Z,9.35
2022-08-18T07:24:50.953Z,10.00
2022-08-18T07:27:23.961Z,8.95
2022-08-18T07:30:05.702Z,9.65
2022-08-18T07:32:39.486Z,8.85
2022-08-18T07:35:08.941Z,9.95
2022-08-18T07:37:45.453Z,9.32
2022-08-18T07:40:51.581Z,10.07
2022-08-18T07:46:08.489Z,9.82
2022-08-18T07:48:40.066Z,9.68
2022-08-18T07:51:43.627Z,9.85
2022-08-18T07:54:47.569Z,9.67
2022-08-18T07:57:20.482Z,9.98
2022-08-18T07:59:53.285Z,8.82
2022-08-18T08:02:46.442Z,9.43
2022-08-18T08:05:55.825Z,10.65
2022-08-18T08:08:45.390Z,8.60
2022-08-18T08:11:30.881Z,10.38
2022-08-18T08:14:22.899Z,9.32
2022-08-18T08:17:26.538Z,10.10
2022-08-18T08:20:01.821Z,9.73
2022-08-18T08:22:37.488Z,10.40
2022-08-18T08:25:45.680Z,10.48
2022-08-18T08:28:35.717Z,9.57
2022-08-18T08:31:33.251Z,9.65
2022-08-18T08:34:07.643Z,9.93
2022-08-18T08:36:39.589Z,10.88
2022-08-18T08:39:21.746Z,9.15
2022-08-18T08:42:28.882Z,9.90
2022-08-18T08:45:00.790Z,9.25
2022-08-18T08:47:36.887Z,10.15
2022-08-18T08:50:15.202Z,10.95
2022-08-18T08:53:06.776Z,10.90
2022-08-18T08:55:36.274Z,9.45
2022-08-18T08:58:29.077Z,10.55
2022-08-18T09:00:56.913Z,10.50
2022-08-18T09:03:40.113Z,9.95
2022-08-18T09:06:17.006Z,9.45
2022-08-18T09:08:56.136Z,9.63
2022-08-18T09:11:48.432Z,9.50
2022-08-18T09:14:34.091Z,8.65
2022-08-18T09:17:34.153Z,8.80
2022-08-18T09:20:22.948Z,8.40
2022-08-18T09:22:54.415Z,9.48
2022-08-18T09:25:52.102Z,8.77
2022-08-18T09:28:42.908Z,8.48
2022-08-18T09:31:09.896Z,8.95
2022-08-18T09:33:44.429Z,9.75
2022-08-18T09:39:20.548Z,8.63
2022-08-18T09:41:59.257Z,9.85
2022-08-18T09:44:47.695Z,10.20
2022-08-18T09:47:21.988Z,9.80
2022-08-18T09:49:57.048Z,9.30
2022-08-18T09:52:26.291Z,8.65
2022-08-18T09:55:00.481Z,9.30
2022-08-18T09:57:42.257Z,9.63
2022-08-18T10:00:14.600Z,9.85
2022-08-18T10:02:41.897Z,10.85
2022-08-18T10:05:15.925Z,10.82
2022-08-18T10:08:01.432Z,9.73
2022-08-18T10:11:01.117Z,9.38
2022-08-18T10:13:55.069Z,8.63
2022-08-18T10:17:21.703Z,8.00
2022-08-18T10:20:05.891Z,7.97
2022-08-18T10:22:43.416Z,8.18
2022-08-18T10:25:23.015Z,10.05
2022-08-18T10:27:55.033Z,8.35
2022-08-18T10:30:36.230Z,10.50
2022-08-18T10:33:58.519Z,9.45
2022-08-18T10:36:51.231Z,10.30
2022-08-18T10:39:23.785Z,8.23
2022-08-18T10:42:00.541Z,9.75
2022-08-18T10:44:31.165Z,8.88
2022-08-18T10:46:59.399Z,10.40
2022-08-18T10:49:28.708Z,9.32
2022-08-18T10:52:23.647Z,9.00
2022-08-18T10:57:53.647Z,8.95
2022-08-18T11:00:22.086Z,8.48
2022-08-18T11:06:06.855Z,8.52
2022-08-18T11:08:45.301Z,8.60
2022-08-18T11:11:34.104Z,8.23
2022-08-18T11:14:09.729Z,8.65
2022-08-18T11:16:37.275Z,9.63
2022-08-18T11:19:16.830Z,9.35
2022-08-18T11:24:35.383Z,8.43
2022-08-18T11:29:55.255Z,8.10
2022-08-18T11:32:35.916Z,8.20
2022-08-18T11:35:12.388Z,7.35
2022-08-18T11:37:48.567Z,7.82
2022-08-18T11:41:33.199Z,7.28
2022-08-18T11:43:41.463Z,8.60
2022-08-18T11:46:28.299Z,6.85
2022-08-18T11:49:00.733Z,8.00
2022-08-18T11:51:32.932Z,5.90
2022-08-18T11:54:03.088Z,6.63
2022-08-18T11:56:37.828Z,6.43
2022-08-18T11:59:52.810Z,6.38
2022-08-18T12:02:17.896Z,6.28
2022-08-18T12:04:50.410Z,6.50
2022-08-18T12:07:27.529Z,6.40
2022-08-18T12:10:16.686Z,5.78
2022-08-18T12:12:51.931Z,5.45
2022-08-18T12:15:23.990Z,5.63
2022-08-18T12:17:53.518Z,4.68
2022-08-18T12:20:22.017Z,5.90
2022-08-18T12:22:50.373Z,5.95
2022-08-18T12:25:25.477Z,5.70
2022-08-18T12:27:53.866Z,6.30
2022-08-18T12:30:21.097Z,5.60
2022-08-18T12:32:49.348Z,6.40
2022-08-18T12:35:22.090Z,5.93
2022-08-18T12:38:13.251Z,5.75
2022-08-18T12:40:36.840Z,6.05
2022-08-18T12:43:05.771Z,5.97
2022-08-18T12:45:33.900Z,6.50
2022-08-18T12:48:04.403Z,6.43
2022-08-18T12:53:19.281Z,6.50
2022-08-18T12:55:57.965Z,5.32
2022-08-18T12:58:25.172Z,6.03
2022-08-18T13:00:52.391Z,5.20
2022-08-18T13:03:20.195Z,5.68
2022-08-18T13:05:47.758Z,5.75
2022-08-18T13:08:27.540Z,6.32
2022-08-18T13:11:14.469Z,7.30
2022-08-18T13:18:48.671Z,8.43
2022-08-18T13:21:18.463Z,7.55
2022-08-18T13:23:45.569Z,7.78
2022-08-18T13:26:27.543Z,7.78
2022-08-18T13:28:57.869Z,7.57
2022-08-18T13:31:26.891Z,7.97
2022-08-18T13:33:57.140Z,7.07
2022-08-18T13:36:44.230Z,7.27
2022-08-18T13:39:18.741Z,8.05
2022-08-18T13:41:48.960Z,7.47
2022-08-18T13:44:18.828Z,8.35
2022-08-18T13:46:48.216Z,6.97
2022-08-18T13:49:18.455Z,7.65
2022-08-18T13:51:52.616Z,7.97
2022-08-18T13:54:31.270Z,7.63
2022-08-18T13:57:01.867Z,7.47
2022-08-18T13:59:32.865Z,7.78
2022-08-18T14:02:05.798Z,7.03
2022-08-18T14:04:36.361Z,7.10
2022-08-18T14:07:08.927Z,7.20
2022-08-18T14:09:38.029Z,7.60
2022-08-18T14:12:23.748Z,7.35
2022-08-18T14:14:53.250Z,6.82
2022-08-18T14:17:22.273Z,8.25
2022-08-18T14:20:15.323Z,7.55
2022-08-18T14:23:11.842Z,6.82
2022-08-18T14:25:57.657Z,7.35
2022-08-18T14:28:28.561Z,7.45
2022-08-18T14:30:56.797Z,7.78
2022-08-18T14:33:49.720Z,7.32
2022-08-18T14:36:14.340Z,8.38
2022-08-18T14:38:41.549Z,7.88
2022-08-18T14:41:13.207Z,7.15
2022-08-18T14:44:04.036Z,6.90
2022-08-18T14:46:30.591Z,6.95
2022-08-18T14:49:04.066Z,8.38
2022-08-18T14:51:33.618Z,7.28
2022-08-18T14:54:02.001Z,6.85
2022-08-18T14:56:29.468Z,6.95
2022-08-18T14:58:56.927Z,6.10
2022-08-18T15:01:24.524Z,6.18
2022-08-18T15:03:54.390Z,6.15
2022-08-18T15:06:23.138Z,7.40
2022-08-18T15:08:55.603Z,5.80
2022-08-18T15:11:24.715Z,5.95
2022-08-18T15:13:55.072Z,6.43
2022-08-18T15:16:27.005Z,6.68
2022-08-18T15:19:00.382Z,5.85
2022-08-18T15:21:46.879Z,6.22
2022-08-18T15:24:34.242Z,6.57
2022-08-18T15:27:10.454Z,6.22
2022-08-18T15:29:46.452Z,6.28
2022-08-18T15:32:15.277Z,6.10
2022-08-18T15:34:47.221Z,5.70
2022-08-18T15:37:20.260Z,6.50
2022-08-18T15:39:59.925Z,6.63
2022-08-18T15:42:27.460Z,6.85
2022-08-18T15:44:54.700Z,6.22
2022-08-18T15:47:24.960Z,6.13
2022-08-18T15:49:52.666Z,5.53
2022-08-18T15:52:25.995Z,5.95
2022-08-18T15:54:58.413Z,5.82
2022-08-18T15:57:38.577Z,5.82
2022-08-18T16:00:20.035Z,6.10
2022-08-18T16:02:57.225Z,5.93
2022-08-18T16:05:27.353Z,5.95
2022-08-18T16:07:58.636Z,6.18
2022-08-18T16:10:28.032Z,5.05
2022-08-18T16:12:55.091Z,5.82
2022-08-18T16:15:24.749Z,5.57
2022-08-18T16:17:54.867Z,5.00
2022-08-18T16:20:25.459Z,5.93
2022-08-18T16:22:53.305Z,7.05
2022-08-18T16:25:20.822Z,7.10
2022-08-18T16:27:48.523Z,6.38
2022-08-18T16:30:19.237Z,5.80
2022-08-18T16:32:47.548Z,5.45
2022-08-18T16:35:14.930Z,6.18
2022-08-18T16:37:42.098Z,6.20
2022-08-18T16:40:09.509Z,6.38
2022-08-18T16:42:36.714Z,6.22
2022-08-18T16:45:04.953Z,5.97
2022-08-18T16:47:34.733Z,7.22
2022-08-18T16:50:01.847Z,7.32
2022-08-18T16:52:28.893Z,7.55
2022-08-18T16:54:57.299Z,8.90
2022-08-18T16:57:53.729Z,8.98
2022-08-18T17:00:43.413Z,9.32
2022-08-18T17:03:29.895Z,9.30
2022-08-18T17:06:00.786Z,8.40
2022-08-18T17:08:27.906Z,8.90
2022-08-18T17:10:55.198Z,10.10
2022-08-18T17:13:22.541Z,9.52
2022-08-18T17:15:50.493Z,10.20
2022-08-18T17:18:17.912Z,9.02
2022-08-18T17:20:45.072Z,8.68
2022-08-18T17:23:12.366Z,9.05
2022-08-18T17:25:39.948Z,8.32
2022-08-18T17:28:10.062Z,8.65
2022-08-18T17:30:43.281Z,8.07
2022-08-18T17:33:13.479Z,7.50
2022-08-18T17:35:43.332Z,8.75
2022-08-18T17:38:19.411Z,8.55
2022-08-18T17:40:49.709Z,7.53
2022-08-18T17:43:29.836Z,8.23
2022-08-18T17:46:00.089Z,7.78
2022-08-18T17:48:56.653Z,8.10
2022-08-18T17:51:44.344Z,7.45
2022-08-18T17:54:27.557Z,7.50
2022-08-18T17:56:57.894Z,7.25
2022-08-18T17:59:59.212Z,7.85
2022-08-18T18:02:30.608Z,7.78
2022-08-18T18:05:09.702Z,7.95
2022-08-18T18:07:38.334Z,8.48
2022-08-18T18:10:10.068Z,9.70
2022-08-18T18:12:38.983Z,8.65
2022-08-18T18:15:09.922Z,8.85
2022-08-18T18:17:38.979Z,8.40
2022-08-18T18:20:42.119Z,8.35
2022-08-18T18:23:41.143Z,8.55
2022-08-18T18:26:28.773Z,9.35
2022-08-18T18:29:21.263Z,8.75
2022-08-18T18:32:02.450Z,9.50
2022-08-18T18:35:23.782Z,9.00
2022-08-18T18:38:03.322Z,8.50
2022-08-18T18:40:40.655Z,9.15
2022-08-18T18:43:28.942Z,8.95
2022-08-18T18:46:18.819Z,8.82
2022-08-18T18:48:52.449Z,8.10
2022-08-18T18:51:48.884Z,8.05
2022-08-18T18:54:38.412Z,8.02
2022-08-18T18:57:12.798Z,8.60
2022-08-18T18:59:39.861Z,8.32
2022-08-18T19:02:34.931Z,8.18
2022-08-18T19:05:08.314Z,8.38
2022-08-18T19:07:57.155Z,7.43
2022-08-18T19:10:34.955Z,7.95
2022-08-18T19:13:12.528Z,8.25
2022-08-18T19:16:09.548Z,7.85
2022-08-18T19:18:43.202Z,7.90
2022-08-18T19:22:03.621Z,7.20
2022-08-18T19:24:18.085Z,7.28
2022-08-18T19:26:50.549Z,7.10
2022-08-18T19:29:23.578Z,8.25
2022-08-18T19:32:08.544Z,7.95
2022-08-18T19:34:51.151Z,6.90
2022-08-18T19:37:44.759Z,7.57
2022-08-18T19:40:26.489Z,7.35
2022-08-18T19:42:59.469Z,7.35
2022-08-18T19:45:53.776Z,7.47
2022-08-18T19:48:27.855Z,7.15
2022-08-18T19:51:00.621Z,7.68
2022-08-18T19:54:01.302Z,7.78
2022-08-18T19:56:32.672Z,7.57
2022-08-18T19:59:35.267Z,7.45
2022-08-18T20:02:17.367Z,7.00
2022-08-18T20:05:16.842Z,6.95
2022-08-18T20:07:49.896Z,8.20
2022-08-18T20:10:38.599Z,7.40
2022-08-18T20:13:23.567Z,7.95
2022-08-18T20:16:28.560Z,6.72
2022-08-18T20:19:49.886Z,7.40
2022-08-18T20:22:24.485Z,8.10
2022-08-18T20:27:35.012Z,8.07
2022-08-18T20:30:29.566Z,7.90
2022-08-18T20:33:15.041Z,7.70
2022-08-18T20:38:31.785Z,8.07
2022-08-18T20:41:00.374Z,8.45
2022-08-18T20:43:34.792Z,7.53
2022-08-18T20:46:20.555Z,8.10
2022-08-18T20:49:05.850Z,8.75
2022-08-18T20:51:52.297Z,7.70
2022-08-18T20:54:57.131Z,7.95
2022-08-18T20:57:29.001Z,7.90
2022-08-18T21:00:04.067Z,7.93
2022-08-18T21:05:02.053Z,7.90
2022-08-18T21:07:38.079Z,7.85
2022-08-18T21:10:16.517Z,8.75
2022-08-18T21:12:55.027Z,8.65
2022-08-18T21:15:26.290Z,8.25
2022-08-18T21:18:09.324Z,9.00
2022-08-18T21:20:36.574Z,8.65
2022-08-18T21:23:13.228Z,8.88
2022-08-18T21:25:53.370Z,9.52
2022-08-18T21:28:21.669Z,8.82
2022-08-18T21:31:41.523Z,8.73
2022-08-18T21:33:50.068Z,8.70
2022-08-18T21:36:18.520Z,8.02
2022-08-18T21:39:06.015Z,8.18
2022-08-18T21:41:36.141Z,7.93
2022-08-18T21:44:06.475Z,7.97
2022-08-18T21:46:33.607Z,7.70
2022-08-18T21:49:02.491Z,8.02
2022-08-18T21:51:32.592Z,7.28
2022-08-18T21:54:00.391Z,7.60
2022-08-18T21:56:31.565Z,7.95
2022-08-18T21:59:10.339Z,8.25
2022-08-18T22:01:49.003Z,8.32
2022-08-18T22:04:36.832Z,8.10
2022-08-18T22:07:07.391Z,8.80
2022-08-18T22:10:19.039Z,7.93
2022-08-18T22:13:15.664Z,8.90
2022-08-18T22:15:47.791Z,8.40
2022-08-18T22:18:17.775Z,8.50
2022-08-18T22:20:46.385Z,8.52
2022-08-18T22:23:31.861Z,8.50
2022-08-18T22:28:58.452Z,8.57
2022-08-18T22:31:31.000Z,9.77
2022-08-18T22:34:02.044Z,8.93
2022-08-18T22:36:33.416Z,8.93
2022-08-18T22:39:00.783Z,9.23
2022-08-18T22:41:28.348Z,9.18
2022-08-18T22:43:58.156Z,8.60
2022-08-18T22:46:25.310Z,10.07
2022-08-18T22:48:52.933Z,9.13
2022-08-18T22:51:23.007Z,8.85
2022-08-18T22:53:50.635Z,8.38
2022-08-18T22:56:21.866Z,9.02
2022-08-18T22:59:09.670Z,8.93
2022-08-18T23:01:42.479Z,8.52
2022-08-18T23:04:09.610Z,8.95
2022-08-18T23:06:36.724Z,9.18
2022-08-18T23:09:04.834Z,9.65
2022-08-18T23:11:31.974Z,9.93
2022-08-18T23:14:02.400Z,9.75
2022-08-18T23:16:31.374Z,9.63
2022-08-18T23:19:03.409Z,10.02
2022-08-18T23:21:34.578Z,9.40
2022-08-18T23:24:04.831Z,8.82
2022-08-18T23:26:32.013Z,9.85
2022-08-18T23:28:59.157Z,9.88
2022-08-18T23:31:26.304Z,9.32
2022-08-18T23:33:53.600Z,10.02
2022-08-18T23:36:20.695Z,10.35
2022-08-18T23:38:47.802Z,10.23
2022-08-18T23:41:16.199Z,9.90
2022-08-18T23:43:43.296Z,9.73
2022-08-18T23:46:22.030Z,9.82
2022-08-18T23:48:50.945Z,9.45
2022-08-18T23:51:24.059Z,9.50
2022-08-18T23:53:53.707Z,9.00
2022-08-18T23:56:20.792Z,9.82
2022-08-18T23:58:56.321Z,9.48
